sensor_id;sensor_type;location;lat;lon;timestamp;pressure;altitude;pressure_sealevel;temperature;humidity
13434;BME280;6789;47.678;9.158;2022-08-25T00:00:33;96800.00;;;18.96;93.13
13434;BME280;6789;47.678;9.158;2022-08-25T00:05:48;96793.44;;;18.79;94.14
13434;BME280;6789;47.678;9.158;2022-08-25T00:10:55;96798.31;;;18.72;94.43
13434;BME280;6789;47.678;9.158;2022-08-25T00:16:03;96793.78;;;18.67;95.11
13434;BME280;6789;47.678;9.158;2022-08-25T00:21:24;96794.91;;;18.52;95.90
13434;BME280;6789;47.678;9.158;2022-08-25T00:27:00;96791.50;;;18.46;96.65
13434;BME280;6789;47.678;9.158;2022-08-25T00:32:19;96795.25;;;18.35;97.29
13434;BME280;6789;47.678;9.158;2022-08-25T00:37:53;96801.38;;;18.16;98.25
13434;BME280;6789;47.678;9.158;2022-08-25T00:43:02;96785.75;;;18.04;98.35
13434;BME280;6789;47.678;9.158;2022-08-25T00:48:21;96790.28;;;17.94;98.84
13434;BME280;6789;47.678;9.158;2022-08-25T00:53:40;96788.72;;;17.88;98.99
13434;BME280;6789;47.678;9.158;2022-08-25T00:59:27;96792.97;;;17.79;99.50
13434;BME280;6789;47.678;9.158;2022-08-25T01:04:45;96794.28;;;17.82;100.00
13434;BME280;6789;47.678;9.158;2022-08-25T01:10:00;96806.25;;;17.69;100.00
13434;BME280;6789;47.678;9.158;2022-08-25T01:15:15;96805.72;;;17.62;100.00
13434;BME280;6789;47.678;9.158;2022-08-25T01:20:34;96805.97;;;17.56;100.00
13434;BME280;6789;47.678;9.158;2022-08-25T01:26:04;96804.09;;;17.46;100.00
13434;BME280;6789;47.678;9.158;2022-08-25T01:31:20;96810.22;;;17.47;100.00
13434;BME280;6789;47.678;9.158;2022-08-25T01:43:51;96796.97;;;17.47;100.00
13434;BME280;6789;47.678;9.158;2022-08-25T01:49:12;96805.97;;;17.36;100.00
13434;BME280;6789;47.678;9.158;2022-08-25T01:54:20;96810.47;;;17.35;100.00
13434;BME280;6789;47.678;9.158;2022-08-25T01:59:27;96797.22;;;17.30;100.00
13434;BME280;6789;47.678;9.158;2022-08-25T02:04:36;96794.53;;;17.25;100.00
13434;BME280;6789;47.678;9.158;2022-08-25T02:10:00;96789.22;;;17.11;100.00
13434;BME280;6789;47.678;9.158;2022-08-25T02:14:54;96783.63;;;17.02;100.00
13434;BME280;6789;47.678;9.158;2022-08-25T02:19:46;96785.47;;;16.97;100.00
13434;BME280;6789;47.678;9.158;2022-08-25T02:24:38;96790.50;;;16.93;100.00
13434;BME280;6789;47.678;9.158;2022-08-25T02:29:30;96783.34;;;16.89;100.00
13434;BME280;6789;47.678;9.158;2022-08-25T02:34:38;96787.56;;;16.85;100.00
13434;BME280;6789;47.678;9.158;2022-08-25T02:39:31;96776.69;;;16.76;100.00
13434;BME280;6789;47.678;9.158;2022-08-25T02:44:23;96780.38;;;16.70;100.00
13434;BME280;6789;47.678;9.158;2022-08-25T02:49:15;96784.34;;;16.63;100.00
13434;BME280;6789;47.678;9.158;2022-08-25T02:54:07;96786.16;;;16.57;100.00
13434;BME280;6789;47.678;9.158;2022-08-25T02:59:00;96790.91;;;16.50;100.00
13434;BME280;6789;47.678;9.158;2022-08-25T03:03:52;96787.19;;;16.42;100.00
13434;BME280;6789;47.678;9.158;2022-08-25T03:09:08;96789.00;;;16.36;100.00
13434;BME280;6789;47.678;9.158;2022-08-25T03:14:08;96779.47;;;16.35;100.00
13434;BME280;6789;47.678;9.158;2022-08-25T03:19:01;96782.63;;;16.32;100.00
13434;BME280;6789;47.678;9.158;2022-08-25T03:23:56;96788.13;;;16.26;100.00
13434;BME280;6789;47.678;9.158;2022-08-25T03:28:49;96774.59;;;16.22;100.00
13434;BME280;6789;47.678;9.158;2022-08-25T03:33:41;96767.22;;;16.24;100.00
13434;BME280;6789;47.678;9.158;2022-08-25T03:38:34;96774.09;;;16.20;100.00
13434;BME280;6789;47.678;9.158;2022-08-25T03:43:28;96773.03;;;16.21;100.00
13434;BME280;6789;47.678;9.158;2022-08-25T03:48:20;96779.13;;;16.27;100.00
13434;BME280;6789;47.678;9.158;2022-08-25T03:53:12;96797.34;;;16.18;100.00
13434;BME280;6789;47.678;9.158;2022-08-25T03:58:18;96796.53;;;16.13;100.00
13434;BME280;6789;47.678;9.158;2022-08-25T04:03:30;96801.78;;;16.08;100.00
13434;BME280;6789;47.678;9.158;2022-08-25T04:09:21;96803.19;;;16.15;100.00
13434;BME280;6789;47.678;9.158;2022-08-25T04:14:36;96807.38;;;16.11;100.00
13434;BME280;6789;47.678;9.158;2022-08-25T04:19:51;96807.31;;;16.01;100.00
13434;BME280;6789;47.678;9.158;2022-08-25T04:25:12;96802.63;;;16.13;100.00
13434;BME280;6789;47.678;9.158;2022-08-25T04:30:43;96810.25;;;16.05;100.00
13434;BME280;6789;47.678;9.158;2022-08-25T04:36:40;96801.19;;;15.96;100.00
13434;BME280;6789;47.678;9.158;2022-08-25T04:42:00;96806.28;;;16.02;100.00
13434;BME280;6789;47.678;9.158;2022-08-25T04:47:45;96815.00;;;16.03;100.00
13434;BME280;6789;47.678;9.158;2022-08-25T04:53:16;96805.25;;;16.59;100.00
13434;BME280;6789;47.678;9.158;2022-08-25T04:58:52;96794.06;;;17.63;100.00
13434;BME280;6789;47.678;9.158;2022-08-25T05:04:20;96794.03;;;18.71;94.33
13434;BME280;6789;47.678;9.158;2022-08-25T05:09:38;96783.88;;;19.64;87.88
13434;BME280;6789;47.678;9.158;2022-08-25T05:14:55;96783.28;;;20.71;82.73
13434;BME280;6789;47.678;9.158;2022-08-25T05:20:03;96782.72;;;21.47;78.11
13434;BME280;6789;47.678;9.158;2022-08-25T05:25:09;96785.34;;;22.42;74.20
13434;BME280;6789;47.678;9.158;2022-08-25T05:30:16;96780.13;;;23.13;70.18
13434;BME280;6789;47.678;9.158;2022-08-25T05:35:22;96789.16;;;23.74;67.31
13434;BME280;6789;47.678;9.158;2022-08-25T05:40:36;96779.31;;;24.22;64.74
13434;BME280;6789;47.678;9.158;2022-08-25T05:45:44;96771.34;;;24.77;62.81
13434;BME280;6789;47.678;9.158;2022-08-25T05:50:58;96781.25;;;25.58;59.25
13434;BME280;6789;47.678;9.158;2022-08-25T05:56:05;96785.00;;;25.99;58.82
13434;BME280;6789;47.678;9.158;2022-08-25T06:01:22;96781.13;;;26.25;58.91
13434;BME280;6789;47.678;9.158;2022-08-25T06:06:48;96791.47;;;26.89;57.46
13434;BME280;6789;47.678;9.158;2022-08-25T06:12:00;96799.84;;;26.96;56.67
13434;BME280;6789;47.678;9.158;2022-08-25T06:17:06;96791.91;;;27.00;55.88
13434;BME280;6789;47.678;9.158;2022-08-25T06:22:12;96805.38;;;27.00;55.33
13434;BME280;6789;47.678;9.158;2022-08-25T06:27:19;96794.06;;;26.77;55.42
13434;BME280;6789;47.678;9.158;2022-08-25T06:32:29;96779.47;;;26.50;55.98
13434;BME280;6789;47.678;9.158;2022-08-25T06:37:39;96778.84;;;25.65;60.20
13434;BME280;6789;47.678;9.158;2022-08-25T06:42:49;96775.97;;;25.02;61.11
13434;BME280;6789;47.678;9.158;2022-08-25T06:47:57;96779.69;;;24.67;62.87
13434;BME280;6789;47.678;9.158;2022-08-25T06:53:04;96780.84;;;24.36;65.17
13434;BME280;6789;47.678;9.158;2022-08-25T06:58:11;96773.63;;;24.15;66.35
13434;BME280;6789;47.678;9.158;2022-08-25T07:03:31;96773.94;;;23.83;67.78
13434;BME280;6789;47.678;9.158;2022-08-25T07:08:38;96765.28;;;23.64;68.23
13434;BME280;6789;47.678;9.158;2022-08-25T07:13:56;96764.69;;;23.10;70.69
13434;BME280;6789;47.678;9.158;2022-08-25T07:19:11;96762.19;;;23.13;70.75
13434;BME280;6789;47.678;9.158;2022-08-25T07:24:49;96757.09;;;23.69;68.13
13434;BME280;6789;47.678;9.158;2022-08-25T07:30:28;96753.94;;;23.67;68.20
13434;BME280;6789;47.678;9.158;2022-08-25T07:35:54;96753.69;;;23.55;69.18
13434;BME280;6789;47.678;9.158;2022-08-25T07:41:23;96748.94;;;23.96;67.94
13434;BME280;6789;47.678;9.158;2022-08-25T07:46:40;96755.66;;;23.85;67.69
13434;BME280;6789;47.678;9.158;2022-08-25T07:52:13;96758.44;;;23.36;69.87
13434;BME280;6789;47.678;9.158;2022-08-25T07:57:30;96754.81;;;23.32;69.32
13434;BME280;6789;47.678;9.158;2022-08-25T08:02:47;96746.28;;;22.82;71.67
13434;BME280;6789;47.678;9.158;2022-08-25T08:07:48;96743.13;;;22.80;73.16
13434;BME280;6789;47.678;9.158;2022-08-25T08:12:58;96761.66;;;22.90;72.52
13434;BME280;6789;47.678;9.158;2022-08-25T08:18:16;96748.72;;;22.92;72.43
13434;BME280;6789;47.678;9.158;2022-08-25T08:23:31;96756.50;;;23.28;70.63
13434;BME280;6789;47.678;9.158;2022-08-25T08:29:26;96759.97;;;23.51;69.21
13434;BME280;6789;47.678;9.158;2022-08-25T08:34:44;96764.66;;;23.89;69.38
13434;BME280;6789;47.678;9.158;2022-08-25T08:40:21;96757.66;;;24.10;68.95
13434;BME280;6789;47.678;9.158;2022-08-25T08:51:20;96762.13;;;24.23;67.41
13434;BME280;6789;47.678;9.158;2022-08-25T08:56:43;96759.97;;;24.72;65.88
13434;BME280;6789;47.678;9.158;2022-08-25T09:02:11;96761.00;;;25.01;63.05
13434;BME280;6789;47.678;9.158;2022-08-25T09:08:10;96761.59;;;24.90;63.08
13434;BME280;6789;47.678;9.158;2022-08-25T09:25:38;96762.25;;;25.04;61.91
13434;BME280;6789;47.678;9.158;2022-08-25T09:31:41;96766.47;;;24.96;62.69
13434;BME280;6789;47.678;9.158;2022-08-25T09:36:56;96767.56;;;24.87;61.39
13434;BME280;6789;47.678;9.158;2022-08-25T09:42:06;96762.25;;;24.95;61.33
13434;BME280;6789;47.678;9.158;2022-08-25T09:47:46;96760.16;;;24.75;61.82
13434;BME280;6789;47.678;9.158;2022-08-25T09:53:18;96769.03;;;25.01;61.21
13434;BME280;6789;47.678;9.158;2022-08-25T09:59:26;96752.50;;;25.33;60.90
13434;BME280;6789;47.678;9.158;2022-08-25T10:16:33;96736.34;;;26.29;57.33
13434;BME280;6789;47.678;9.158;2022-08-25T10:22:10;96721.47;;;26.61;56.74
13434;BME280;6789;47.678;9.158;2022-08-25T10:38:57;96704.22;;;26.82;55.71
13434;BME280;6789;47.678;9.158;2022-08-25T10:50:12;96712.25;;;26.99;54.92
13434;BME280;6789;47.678;9.158;2022-08-25T11:01:47;96694.19;;;26.91;54.49
13434;BME280;6789;47.678;9.158;2022-08-25T11:07:50;96688.75;;;26.79;54.65
13434;BME280;6789;47.678;9.158;2022-08-25T11:13:48;96689.19;;;27.10;54.06
13434;BME280;6789;47.678;9.158;2022-08-25T11:19:27;96678.25;;;26.37;55.16
13434;BME280;6789;47.678;9.158;2022-08-25T11:25:28;96679.09;;;26.20;56.21
13434;BME280;6789;47.678;9.158;2022-08-25T11:30:42;96668.44;;;26.41;55.55
13434;BME280;6789;47.678;9.158;2022-08-25T11:42:16;96671.91;;;25.95;56.07
13434;BME280;6789;47.678;9.158;2022-08-25T11:53:37;96648.91;;;26.15;55.53
13434;BME280;6789;47.678;9.158;2022-08-25T11:58:52;96650.53;;;26.36;54.48
13434;BME280;6789;47.678;9.158;2022-08-25T12:04:51;96650.44;;;26.53;53.76
13434;BME280;6789;47.678;9.158;2022-08-25T12:11:11;96643.59;;;27.05;52.00
13434;BME280;6789;47.678;9.158;2022-08-25T12:33:18;96630.81;;;27.14;51.17
13434;BME280;6789;47.678;9.158;2022-08-25T13:14:51;96616.78;;;27.41;51.91
13434;BME280;6789;47.678;9.158;2022-08-25T13:20:24;96617.00;;;27.47;51.28
13434;BME280;6789;47.678;9.158;2022-08-25T13:26:15;96598.28;;;27.51;52.85
13434;BME280;6789;47.678;9.158;2022-08-25T13:32:07;96597.94;;;27.52;52.22
13434;BME280;6789;47.678;9.158;2022-08-25T13:37:23;96601.59;;;27.36;52.43
13434;BME280;6789;47.678;9.158;2022-08-25T13:48:33;96590.75;;;27.56;48.44
13434;BME280;6789;47.678;9.158;2022-08-25T13:54:37;96581.69;;;27.73;49.53
13434;BME280;6789;47.678;9.158;2022-08-25T13:59:51;96576.06;;;27.66;50.21
13434;BME280;6789;47.678;9.158;2022-08-25T14:05:40;96568.44;;;27.80;48.56
13434;BME280;6789;47.678;9.158;2022-08-25T14:17:09;96568.00;;;27.78;43.90
13434;BME280;6789;47.678;9.158;2022-08-25T14:23:02;96565.09;;;27.83;43.88
13434;BME280;6789;47.678;9.158;2022-08-25T14:28:39;96571.59;;;27.70;44.33
13434;BME280;6789;47.678;9.158;2022-08-25T14:34:12;96571.72;;;27.97;43.19
13434;BME280;6789;47.678;9.158;2022-08-25T14:39:22;96565.28;;;28.14;43.37
13434;BME280;6789;47.678;9.158;2022-08-25T14:44:29;96562.94;;;28.36;42.96
13434;BME280;6789;47.678;9.158;2022-08-25T14:49:40;96549.84;;;28.38;42.37
13434;BME280;6789;47.678;9.158;2022-08-25T14:54:49;96551.28;;;28.47;41.87
13434;BME280;6789;47.678;9.158;2022-08-25T15:00:25;96552.31;;;28.55;42.42
13434;BME280;6789;47.678;9.158;2022-08-25T15:05:31;96550.97;;;28.49;37.28
13434;BME280;6789;47.678;9.158;2022-08-25T15:10:39;96546.47;;;28.53;38.40
13434;BME280;6789;47.678;9.158;2022-08-25T15:16:54;96538.06;;;28.70;38.64
13434;BME280;6789;47.678;9.158;2022-08-25T15:22:10;96534.78;;;28.49;38.47
13434;BME280;6789;47.678;9.158;2022-08-25T15:28:08;96537.91;;;28.51;39.27
13434;BME280;6789;47.678;9.158;2022-08-25T15:33:17;96549.59;;;28.55;38.52
13434;BME280;6789;47.678;9.158;2022-08-25T15:38:29;96532.50;;;28.51;39.78
13434;BME280;6789;47.678;9.158;2022-08-25T15:43:38;96529.38;;;28.49;39.24
13434;BME280;6789;47.678;9.158;2022-08-25T15:48:49;96529.50;;;28.40;39.93
13434;BME280;6789;47.678;9.158;2022-08-25T15:54:05;96528.94;;;28.47;39.87
13434;BME280;6789;47.678;9.158;2022-08-25T15:59:23;96511.88;;;28.31;41.03
13434;BME280;6789;47.678;9.158;2022-08-25T16:04:30;96512.97;;;28.42;40.44
13434;BME280;6789;47.678;9.158;2022-08-25T16:10:08;96511.44;;;28.29;41.56
13434;BME280;6789;47.678;9.158;2022-08-25T16:15:47;96505.13;;;28.37;42.06
13434;BME280;6789;47.678;9.158;2022-08-25T16:21:30;96501.97;;;28.35;41.77
13434;BME280;6789;47.678;9.158;2022-08-25T16:26:43;96499.97;;;28.20;42.27
13434;BME280;6789;47.678;9.158;2022-08-25T16:32:08;96492.56;;;28.17;42.14
13434;BME280;6789;47.678;9.158;2022-08-25T16:37:23;96485.50;;;28.01;43.18
13434;BME280;6789;47.678;9.158;2022-08-25T16:42:38;96483.47;;;27.98;42.40
13434;BME280;6789;47.678;9.158;2022-08-25T16:47:51;96483.25;;;28.03;42.88
13434;BME280;6789;47.678;9.158;2022-08-25T16:53:08;96474.13;;;28.07;42.47
13434;BME280;6789;47.678;9.158;2022-08-25T16:58:43;96483.66;;;28.16;41.31
13434;BME280;6789;47.678;9.158;2022-08-25T17:03:55;96477.75;;;27.99;40.61
13434;BME280;6789;47.678;9.158;2022-08-25T17:09:05;96472.19;;;27.80;42.31
13434;BME280;6789;47.678;9.158;2022-08-25T17:14:19;96467.00;;;27.63;43.69
13434;BME280;6789;47.678;9.158;2022-08-25T17:26:16;96463.81;;;27.02;49.14
13434;BME280;6789;47.678;9.158;2022-08-25T17:31:22;96465.91;;;26.96;49.32
13434;BME280;6789;47.678;9.158;2022-08-25T17:36:28;96460.81;;;26.83;49.30
13434;BME280;6789;47.678;9.158;2022-08-25T17:41:41;96468.22;;;26.74;50.70
13434;BME280;6789;47.678;9.158;2022-08-25T17:46:56;96475.78;;;26.60;51.09
13434;BME280;6789;47.678;9.158;2022-08-25T17:52:10;96484.53;;;26.37;52.27
13434;BME280;6789;47.678;9.158;2022-08-25T17:57:25;96482.19;;;25.95;53.26
13434;BME280;6789;47.678;9.158;2022-08-25T18:02:32;96484.50;;;25.67;51.57
13434;BME280;6789;47.678;9.158;2022-08-25T18:07:38;96484.03;;;25.45;52.44
13434;BME280;6789;47.678;9.158;2022-08-25T18:12:46;96490.31;;;25.20;55.96
13434;BME280;6789;47.678;9.158;2022-08-25T18:18:05;96489.56;;;24.94;59.12
13434;BME280;6789;47.678;9.158;2022-08-25T18:23:12;96491.66;;;24.72;62.49
13434;BME280;6789;47.678;9.158;2022-08-25T18:28:18;96488.22;;;24.46;66.48
13434;BME280;6789;47.678;9.158;2022-08-25T18:33:24;96500.19;;;24.06;68.27
13434;BME280;6789;47.678;9.158;2022-08-25T18:38:31;96496.06;;;23.83;67.76
13434;BME280;6789;47.678;9.158;2022-08-25T18:43:56;96507.66;;;23.71;66.51
13434;BME280;6789;47.678;9.158;2022-08-25T18:49:21;96513.00;;;23.62;67.58
13434;BME280;6789;47.678;9.158;2022-08-25T18:54:53;96509.69;;;23.57;69.10
13434;BME280;6789;47.678;9.158;2022-08-25T19:00:03;96518.94;;;23.42;70.58
13434;BME280;6789;47.678;9.158;2022-08-25T19:05:26;96523.13;;;23.26;72.20
13434;BME280;6789;47.678;9.158;2022-08-25T19:10:36;96512.38;;;23.18;73.40
13434;BME280;6789;47.678;9.158;2022-08-25T19:15:53;96512.63;;;23.08;74.44
13434;BME280;6789;47.678;9.158;2022-08-25T19:21:04;96520.09;;;22.98;75.33
13434;BME280;6789;47.678;9.158;2022-08-25T19:26:10;96515.03;;;22.88;75.43
13434;BME280;6789;47.678;9.158;2022-08-25T19:31:22;96511.53;;;22.79;75.42
13434;BME280;6789;47.678;9.158;2022-08-25T19:36:39;96517.44;;;22.67;76.63
13434;BME280;6789;47.678;9.158;2022-08-25T19:41:44;96521.63;;;22.60;77.89
13434;BME280;6789;47.678;9.158;2022-08-25T19:46:51;96513.25;;;22.53;79.88
13434;BME280;6789;47.678;9.158;2022-08-25T19:51:57;96512.00;;;22.37;80.66
13434;BME280;6789;47.678;9.158;2022-08-25T19:57:07;96521.94;;;22.23;81.13
13434;BME280;6789;47.678;9.158;2022-08-25T20:02:26;96521.19;;;22.09;82.72
13434;BME280;6789;47.678;9.158;2022-08-25T20:07:34;96517.16;;;21.98;84.24
13434;BME280;6789;47.678;9.158;2022-08-25T20:12:44;96517.06;;;21.90;86.03
13434;BME280;6789;47.678;9.158;2022-08-25T20:17:53;96514.13;;;21.78;87.42
13434;BME280;6789;47.678;9.158;2022-08-25T20:23:18;96516.22;;;21.67;88.45
13434;BME280;6789;47.678;9.158;2022-08-25T20:29:15;96524.25;;;21.54;88.83
13434;BME280;6789;47.678;9.158;2022-08-25T20:34:54;96526.91;;;21.41;88.85
13434;BME280;6789;47.678;9.158;2022-08-25T20:40:07;96525.53;;;21.30;90.15
13434;BME280;6789;47.678;9.158;2022-08-25T20:45:18;96524.31;;;21.22;91.16
13434;BME280;6789;47.678;9.158;2022-08-25T20:50:51;96523.44;;;21.13;91.13
13434;BME280;6789;47.678;9.158;2022-08-25T20:56:14;96531.81;;;21.07;91.01
13434;BME280;6789;47.678;9.158;2022-08-25T21:01:27;96536.47;;;21.01;89.36
13434;BME280;6789;47.678;9.158;2022-08-25T21:06:45;96541.84;;;20.83;89.32
13434;BME280;6789;47.678;9.158;2022-08-25T21:12:04;96547.38;;;20.68;89.36
13434;BME280;6789;47.678;9.158;2022-08-25T21:17:37;96543.06;;;20.72;90.21
13434;BME280;6789;47.678;9.158;2022-08-25T21:23:43;96539.34;;;20.55;91.03
13434;BME280;6789;47.678;9.158;2022-08-25T21:35:22;96550.91;;;20.32;92.35
13434;BME280;6789;47.678;9.158;2022-08-25T21:40:35;96561.91;;;20.25;92.97
13434;BME280;6789;47.678;9.158;2022-08-25T21:45:48;96548.97;;;20.19;93.50
13434;BME280;6789;47.678;9.158;2022-08-25T21:51:07;96541.91;;;20.09;94.21
13434;BME280;6789;47.678;9.158;2022-08-25T21:56:19;96553.72;;;20.04;94.25
13434;BME280;6789;47.678;9.158;2022-08-25T22:01:26;96546.38;;;19.96;94.51
13434;BME280;6789;47.678;9.158;2022-08-25T22:06:34;96556.06;;;19.87;94.94
13434;BME280;6789;47.678;9.158;2022-08-25T22:11:49;96550.28;;;19.80;95.32
13434;BME280;6789;47.678;9.158;2022-08-25T22:16:58;96549.84;;;19.73;95.84
13434;BME280;6789;47.678;9.158;2022-08-25T22:27:12;96545.31;;;19.73;95.81
13434;BME280;6789;47.678;9.158;2022-08-25T22:32:19;96547.19;;;19.73;94.85
13434;BME280;6789;47.678;9.158;2022-08-25T22:37:25;96543.00;;;19.67;94.81
13434;BME280;6789;47.678;9.158;2022-08-25T22:42:31;96553.13;;;19.65;93.93
13434;BME280;6789;47.678;9.158;2022-08-25T22:47:42;96546.88;;;19.56;94.62
13434;BME280;6789;47.678;9.158;2022-08-25T22:52:59;96559.31;;;19.60;93.15
13434;BME280;6789;47.678;9.158;2022-08-25T22:58:06;96555.53;;;19.43;94.03
13434;BME280;6789;47.678;9.158;2022-08-25T23:03:13;96558.13;;;19.25;94.48
13434;BME280;6789;47.678;9.158;2022-08-25T23:08:24;96552.50;;;19.26;94.68
13434;BME280;6789;47.678;9.158;2022-08-25T23:13:37;96550.78;;;19.40;94.28
13434;BME280;6789;47.678;9.158;2022-08-25T23:18:53;96546.59;;;19.34;95.32
13434;BME280;6789;47.678;9.158;2022-08-25T23:30:18;96539.84;;;19.18;96.70
13434;BME280;6789;47.678;9.158;2022-08-25T23:35:12;96530.34;;;19.07;97.41
13434;BME280;6789;47.678;9.158;2022-08-25T23:40:28;96530.47;;;18.97;97.80
13434;BME280;6789;47.678;9.158;2022-08-25T23:45:22;96522.91;;;18.81;98.24
13434;BME280;6789;47.678;9.158;2022-08-25T23:50:14;96514.75;;;18.72;98.86
13434;BME280;6789;47.678;9.158;2022-08-25T23:55:07;96515.66;;;18.63;98.95
